sensor_id;sensor_type;location;lat;lon;timestamp;temperature;humidity
53254;DHT22;39148;53.332;6.922;2022-09-12T00:00:38;20.00;81.30
53254;DHT22;39148;53.332;6.922;2022-09-12T00:03:04;20.00;81.40
53254;DHT22;39148;53.332;6.922;2022-09-12T00:05:29;20.00;81.40
53254;DHT22;39148;53.332;6.922;2022-09-12T00:07:57;20.00;81.40
53254;DHT22;39148;53.332;6.922;2022-09-12T00:10:23;19.80;81.40
53254;DHT22;39148;53.332;6.922;2022-09-12T00:12:48;19.90;81.30
53254;DHT22;39148;53.332;6.922;2022-09-12T00:15:14;19.90;81.40
53254;DHT22;39148;53.332;6.922;2022-09-12T00:17:40;19.90;81.40
53254;DHT22;39148;53.332;6.922;2022-09-12T00:20:07;19.90;81.40
53254;DHT22;39148;53.332;6.922;2022-09-12T00:22:34;19.90;81.20
53254;DHT22;39148;53.332;6.922;2022-09-12T00:25:00;19.90;81.50
53254;DHT22;39148;53.332;6.922;2022-09-12T00:27:26;19.90;81.50
53254;DHT22;39148;53.332;6.922;2022-09-12T00:29:52;19.90;81.50
53254;DHT22;39148;53.332;6.922;2022-09-12T00:32:18;19.90;81.50
53254;DHT22;39148;53.332;6.922;2022-09-12T00:34:44;19.80;81.50
53254;DHT22;39148;53.332;6.922;2022-09-12T00:37:10;19.90;81.50
53254;DHT22;39148;53.332;6.922;2022-09-12T00:39:36;19.70;81.50
53254;DHT22;39148;53.332;6.922;2022-09-12T00:42:01;19.60;81.50
53254;DHT22;39148;53.332;6.922;2022-09-12T00:47:20;19.70;81.50
53254;DHT22;39148;53.332;6.922;2022-09-12T00:50:11;19.70;81.90
53254;DHT22;39148;53.332;6.922;2022-09-12T00:52:51;19.70;80.80
53254;DHT22;39148;53.332;6.922;2022-09-12T00:55:25;19.70;81.90
53254;DHT22;39148;53.332;6.922;2022-09-12T00:58:13;19.60;81.80
53254;DHT22;39148;53.332;6.922;2022-09-12T01:00:40;19.70;80.70
53254;DHT22;39148;53.332;6.922;2022-09-12T01:03:09;19.60;81.60
53254;DHT22;39148;53.332;6.922;2022-09-12T01:05:43;19.60;81.70
53254;DHT22;39148;53.332;6.922;2022-09-12T01:08:11;19.60;81.70
53254;DHT22;39148;53.332;6.922;2022-09-12T01:10:39;19.60;81.60
53254;DHT22;39148;53.332;6.922;2022-09-12T01:13:06;19.60;81.80
53254;DHT22;39148;53.332;6.922;2022-09-12T01:15:33;19.60;81.70
53254;DHT22;39148;53.332;6.922;2022-09-12T01:29:35;19.50;80.90
53254;DHT22;39148;53.332;6.922;2022-09-12T01:33:05;19.50;80.70
53254;DHT22;39148;53.332;6.922;2022-09-12T01:38:45;19.40;80.50
53254;DHT22;39148;53.332;6.922;2022-09-12T01:43:48;19.40;80.60
53254;DHT22;39148;53.332;6.922;2022-09-12T01:46:22;19.40;81.80
53254;DHT22;39148;53.332;6.922;2022-09-12T01:49:19;19.30;81.80
53254;DHT22;39148;53.332;6.922;2022-09-12T01:52:11;19.40;80.90
53254;DHT22;39148;53.332;6.922;2022-09-12T01:54:58;19.40;80.80
53254;DHT22;39148;53.332;6.922;2022-09-12T01:57:53;19.40;80.90
53254;DHT22;39148;53.332;6.922;2022-09-12T02:00:20;19.20;82.00
53254;DHT22;39148;53.332;6.922;2022-09-12T02:02:52;19.30;81.70
53254;DHT22;39148;53.332;6.922;2022-09-12T02:05:24;19.30;81.90
53254;DHT22;39148;53.332;6.922;2022-09-12T02:08:06;19.30;81.80
53254;DHT22;39148;53.332;6.922;2022-09-12T02:10:43;19.30;82.00
53254;DHT22;39148;53.332;6.922;2022-09-12T02:13:18;19.20;82.00
53254;DHT22;39148;53.332;6.922;2022-09-12T02:15:51;19.30;82.00
53254;DHT22;39148;53.332;6.922;2022-09-12T02:18:19;19.30;82.00
53254;DHT22;39148;53.332;6.922;2022-09-12T02:20:47;19.20;81.90
53254;DHT22;39148;53.332;6.922;2022-09-12T02:23:18;19.20;81.90
53254;DHT22;39148;53.332;6.922;2022-09-12T02:25:46;19.20;81.90
53254;DHT22;39148;53.332;6.922;2022-09-12T02:28:17;19.20;81.90
53254;DHT22;39148;53.332;6.922;2022-09-12T02:30:49;19.20;82.00
53254;DHT22;39148;53.332;6.922;2022-09-12T02:33:28;19.10;80.90
53254;DHT22;39148;53.332;6.922;2022-09-12T02:36:12;19.20;82.10
53254;DHT22;39148;53.332;6.922;2022-09-12T02:38:43;19.10;82.10
53254;DHT22;39148;53.332;6.922;2022-09-12T02:41:11;19.10;81.90
53254;DHT22;39148;53.332;6.922;2022-09-12T02:43:38;19.10;82.00
53254;DHT22;39148;53.332;6.922;2022-09-12T02:46:07;19.10;81.80
53254;DHT22;39148;53.332;6.922;2022-09-12T02:48:37;19.10;82.00
53254;DHT22;39148;53.332;6.922;2022-09-12T02:51:04;19.10;82.00
53254;DHT22;39148;53.332;6.922;2022-09-12T02:53:30;19.10;81.70
53254;DHT22;39148;53.332;6.922;2022-09-12T02:55:56;19.10;81.90
53254;DHT22;39148;53.332;6.922;2022-09-12T02:58:25;19.00;81.80
53254;DHT22;39148;53.332;6.922;2022-09-12T03:01:17;19.00;82.00
53254;DHT22;39148;53.332;6.922;2022-09-12T03:15:31;18.90;82.00
53254;DHT22;39148;53.332;6.922;2022-09-12T03:18:28;18.90;82.30
53254;DHT22;39148;53.332;6.922;2022-09-12T03:26:24;18.90;81.00
53254;DHT22;39148;53.332;6.922;2022-09-12T03:28:51;18.90;82.20
53254;DHT22;39148;53.332;6.922;2022-09-12T03:31:18;18.90;82.10
53254;DHT22;39148;53.332;6.922;2022-09-12T03:33:45;18.90;81.90
53254;DHT22;39148;53.332;6.922;2022-09-12T03:36:25;18.80;81.90
53254;DHT22;39148;53.332;6.922;2022-09-12T03:38:51;18.70;82.30
53254;DHT22;39148;53.332;6.922;2022-09-12T03:41:17;18.80;82.00
53254;DHT22;39148;53.332;6.922;2022-09-12T03:43:44;18.80;82.00
53254;DHT22;39148;53.332;6.922;2022-09-12T03:46:09;18.80;82.00
53254;DHT22;39148;53.332;6.922;2022-09-12T03:48:35;18.80;81.90
53254;DHT22;39148;53.332;6.922;2022-09-12T03:51:06;18.70;81.90
53254;DHT22;39148;53.332;6.922;2022-09-12T03:53:33;18.80;82.20
53254;DHT22;39148;53.332;6.922;2022-09-12T03:55:59;18.70;81.90
53254;DHT22;39148;53.332;6.922;2022-09-12T03:58:29;18.80;82.00
53254;DHT22;39148;53.332;6.922;2022-09-12T04:00:55;18.70;82.10
53254;DHT22;39148;53.332;6.922;2022-09-12T04:03:21;18.70;82.00
53254;DHT22;39148;53.332;6.922;2022-09-12T04:05:47;18.70;81.90
53254;DHT22;39148;53.332;6.922;2022-09-12T04:08:13;18.50;81.80
53254;DHT22;39148;53.332;6.922;2022-09-12T04:10:39;18.70;82.00
53254;DHT22;39148;53.332;6.922;2022-09-12T04:13:05;18.60;82.00
53254;DHT22;39148;53.332;6.922;2022-09-12T04:15:31;18.60;82.00
53254;DHT22;39148;53.332;6.922;2022-09-12T04:17:57;18.70;82.00
53254;DHT22;39148;53.332;6.922;2022-09-12T04:20:22;18.70;82.00
53254;DHT22;39148;53.332;6.922;2022-09-12T04:22:48;18.60;82.00
53254;DHT22;39148;53.332;6.922;2022-09-12T04:25:14;18.60;82.00
53254;DHT22;39148;53.332;6.922;2022-09-12T04:27:40;18.60;81.90
53254;DHT22;39148;53.332;6.922;2022-09-12T04:30:06;18.40;81.90
53254;DHT22;39148;53.332;6.922;2022-09-12T04:32:33;18.60;81.70
53254;DHT22;39148;53.332;6.922;2022-09-12T04:34:59;18.50;82.00
53254;DHT22;39148;53.332;6.922;2022-09-12T04:37:25;18.60;82.10
53254;DHT22;39148;53.332;6.922;2022-09-12T04:39:51;18.50;82.00
53254;DHT22;39148;53.332;6.922;2022-09-12T04:42:20;18.50;82.10
53254;DHT22;39148;53.332;6.922;2022-09-12T04:44:47;18.60;82.10
53254;DHT22;39148;53.332;6.922;2022-09-12T04:47:13;18.50;82.10
53254;DHT22;39148;53.332;6.922;2022-09-12T04:49:38;18.50;82.00
53254;DHT22;39148;53.332;6.922;2022-09-12T04:52:04;18.50;82.00
53254;DHT22;39148;53.332;6.922;2022-09-12T04:54:30;18.50;82.10
53254;DHT22;39148;53.332;6.922;2022-09-12T04:56:55;18.40;82.10
53254;DHT22;39148;53.332;6.922;2022-09-12T04:59:21;18.50;82.10
53254;DHT22;39148;53.332;6.922;2022-09-12T05:01:47;18.50;82.10
53254;DHT22;39148;53.332;6.922;2022-09-12T05:04:13;18.30;82.20
53254;DHT22;39148;53.332;6.922;2022-09-12T05:06:40;18.40;82.20
53254;DHT22;39148;53.332;6.922;2022-09-12T05:09:09;18.50;82.40
53254;DHT22;39148;53.332;6.922;2022-09-12T05:11:38;18.30;82.30
53254;DHT22;39148;53.332;6.922;2022-09-12T05:14:04;18.30;82.30
53254;DHT22;39148;53.332;6.922;2022-09-12T05:16:30;18.40;82.20
53254;DHT22;39148;53.332;6.922;2022-09-12T05:18:58;18.30;82.20
53254;DHT22;39148;53.332;6.922;2022-09-12T05:21:25;18.30;82.80
53254;DHT22;39148;53.332;6.922;2022-09-12T05:23:55;18.30;82.40
53254;DHT22;39148;53.332;6.922;2022-09-12T05:26:22;18.30;82.40
53254;DHT22;39148;53.332;6.922;2022-09-12T05:28:49;18.30;82.80
53254;DHT22;39148;53.332;6.922;2022-09-12T05:31:23;18.30;82.40
53254;DHT22;39148;53.332;6.922;2022-09-12T05:33:51;18.20;81.20
53254;DHT22;39148;53.332;6.922;2022-09-12T05:36:28;18.30;82.40
53254;DHT22;39148;53.332;6.922;2022-09-12T05:38:55;18.30;81.40
53254;DHT22;39148;53.332;6.922;2022-09-12T05:41:23;18.20;82.40
53254;DHT22;39148;53.332;6.922;2022-09-12T05:43:54;18.30;82.50
53254;DHT22;39148;53.332;6.922;2022-09-12T05:46:20;18.30;82.60
53254;DHT22;39148;53.332;6.922;2022-09-12T05:48:48;18.20;82.60
53254;DHT22;39148;53.332;6.922;2022-09-12T05:51:20;18.20;82.40
53254;DHT22;39148;53.332;6.922;2022-09-12T05:53:49;18.20;82.60
53254;DHT22;39148;53.332;6.922;2022-09-12T05:56:18;18.20;82.50
53254;DHT22;39148;53.332;6.922;2022-09-12T05:58:47;18.10;82.40
53254;DHT22;39148;53.332;6.922;2022-09-12T06:01:15;18.20;82.50
53254;DHT22;39148;53.332;6.922;2022-09-12T06:03:47;18.10;82.40
53254;DHT22;39148;53.332;6.922;2022-09-12T06:06:14;18.20;83.00
53254;DHT22;39148;53.332;6.922;2022-09-12T06:08:42;18.10;82.50
53254;DHT22;39148;53.332;6.922;2022-09-12T06:11:09;18.10;82.50
53254;DHT22;39148;53.332;6.922;2022-09-12T06:13:37;18.20;83.00
53254;DHT22;39148;53.332;6.922;2022-09-12T06:16:06;18.10;82.50
53254;DHT22;39148;53.332;6.922;2022-09-12T06:18:33;18.30;82.40
53254;DHT22;39148;53.332;6.922;2022-09-12T06:21:13;18.10;82.50
53254;DHT22;39148;53.332;6.922;2022-09-12T06:23:39;18.10;82.50
53254;DHT22;39148;53.332;6.922;2022-09-12T06:26:07;18.10;82.50
53254;DHT22;39148;53.332;6.922;2022-09-12T06:28:35;18.20;82.60
53254;DHT22;39148;53.332;6.922;2022-09-12T06:31:06;18.10;82.60
53254;DHT22;39148;53.332;6.922;2022-09-12T06:33:35;18.90;83.10
53254;DHT22;39148;53.332;6.922;2022-09-12T06:36:06;18.10;81.60
53254;DHT22;39148;53.332;6.922;2022-09-12T06:38:32;18.20;82.40
53254;DHT22;39148;53.332;6.922;2022-09-12T06:40:58;18.10;82.40
53254;DHT22;39148;53.332;6.922;2022-09-12T06:43:25;18.10;82.60
53254;DHT22;39148;53.332;6.922;2022-09-12T06:45:51;18.10;82.60
53254;DHT22;39148;53.332;6.922;2022-09-12T06:48:17;18.10;82.90
53254;DHT22;39148;53.332;6.922;2022-09-12T06:50:43;18.10;82.50
53254;DHT22;39148;53.332;6.922;2022-09-12T06:53:08;18.10;82.50
53254;DHT22;39148;53.332;6.922;2022-09-12T06:55:34;18.10;83.00
53254;DHT22;39148;53.332;6.922;2022-09-12T06:58:00;18.10;82.50
53254;DHT22;39148;53.332;6.922;2022-09-12T07:00:25;18.10;82.60
53254;DHT22;39148;53.332;6.922;2022-09-12T07:02:54;18.00;82.50
53254;DHT22;39148;53.332;6.922;2022-09-12T07:05:23;18.00;82.70
53254;DHT22;39148;53.332;6.922;2022-09-12T07:07:48;18.00;82.50
53254;DHT22;39148;53.332;6.922;2022-09-12T07:10:14;18.10;82.50
53254;DHT22;39148;53.332;6.922;2022-09-12T07:12:40;18.00;82.50
53254;DHT22;39148;53.332;6.922;2022-09-12T07:15:06;18.10;82.60
53254;DHT22;39148;53.332;6.922;2022-09-12T07:17:31;18.00;82.20
53254;DHT22;39148;53.332;6.922;2022-09-12T07:19:57;17.90;82.60
53254;DHT22;39148;53.332;6.922;2022-09-12T07:22:23;18.10;82.60
53254;DHT22;39148;53.332;6.922;2022-09-12T07:24:48;18.00;82.50
53254;DHT22;39148;53.332;6.922;2022-09-12T07:27:15;18.10;82.60
53254;DHT22;39148;53.332;6.922;2022-09-12T07:29:40;18.00;82.60
53254;DHT22;39148;53.332;6.922;2022-09-12T07:32:06;17.90;82.80
53254;DHT22;39148;53.332;6.922;2022-09-12T07:34:32;18.00;82.50
53254;DHT22;39148;53.332;6.922;2022-09-12T07:36:58;18.00;82.50
53254;DHT22;39148;53.332;6.922;2022-09-12T07:39:24;18.00;82.60
53254;DHT22;39148;53.332;6.922;2022-09-12T07:41:50;18.00;82.50
53254;DHT22;39148;53.332;6.922;2022-09-12T07:44:15;18.00;82.60
53254;DHT22;39148;53.332;6.922;2022-09-12T07:46:41;18.10;82.70
53254;DHT22;39148;53.332;6.922;2022-09-12T07:49:07;18.10;82.80
53254;DHT22;39148;53.332;6.922;2022-09-12T07:51:33;18.00;82.50
53254;DHT22;39148;53.332;6.922;2022-09-12T07:53:59;18.80;83.40
53254;DHT22;39148;53.332;6.922;2022-09-12T07:56:25;18.00;82.60
53254;DHT22;39148;53.332;6.922;2022-09-12T07:58:53;18.10;82.80
53254;DHT22;39148;53.332;6.922;2022-09-12T08:01:21;18.00;82.70
53254;DHT22;39148;53.332;6.922;2022-09-12T08:03:53;18.00;82.00
53254;DHT22;39148;53.332;6.922;2022-09-12T08:06:21;18.00;82.80
53254;DHT22;39148;53.332;6.922;2022-09-12T08:08:49;18.10;82.80
53254;DHT22;39148;53.332;6.922;2022-09-12T08:11:16;18.00;82.60
53254;DHT22;39148;53.332;6.922;2022-09-12T08:13:44;18.00;83.20
53254;DHT22;39148;53.332;6.922;2022-09-12T08:16:15;18.10;82.80
53254;DHT22;39148;53.332;6.922;2022-09-12T08:18:41;18.10;82.80
53254;DHT22;39148;53.332;6.922;2022-09-12T08:21:19;18.00;82.60
53254;DHT22;39148;53.332;6.922;2022-09-12T08:23:45;18.10;82.80
53254;DHT22;39148;53.332;6.922;2022-09-12T08:26:12;18.00;82.70
53254;DHT22;39148;53.332;6.922;2022-09-12T08:28:38;18.10;82.60
53254;DHT22;39148;53.332;6.922;2022-09-12T08:31:08;18.00;82.50
53254;DHT22;39148;53.332;6.922;2022-09-12T08:33:35;18.00;82.60
53254;DHT22;39148;53.332;6.922;2022-09-12T08:38:34;18.00;82.30
53254;DHT22;39148;53.332;6.922;2022-09-12T08:49:04;18.10;81.70
53254;DHT22;39148;53.332;6.922;2022-09-12T08:51:34;18.00;82.60
53254;DHT22;39148;53.332;6.922;2022-09-12T08:54:01;18.20;82.60
53254;DHT22;39148;53.332;6.922;2022-09-12T08:56:33;18.20;82.80
53254;DHT22;39148;53.332;6.922;2022-09-12T08:59:00;18.10;82.80
53254;DHT22;39148;53.332;6.922;2022-09-12T09:01:34;18.10;82.60
53254;DHT22;39148;53.332;6.922;2022-09-12T09:04:30;18.10;82.80
53254;DHT22;39148;53.332;6.922;2022-09-12T09:15:20;18.10;81.70
53254;DHT22;39148;53.332;6.922;2022-09-12T09:18:07;18.20;81.60
53254;DHT22;39148;53.332;6.922;2022-09-12T09:20:45;18.20;82.90
53254;DHT22;39148;53.332;6.922;2022-09-12T09:23:21;18.20;82.80
53254;DHT22;39148;53.332;6.922;2022-09-12T09:28:31;18.30;81.70
53254;DHT22;39148;53.332;6.922;2022-09-12T09:30:58;18.40;82.50
53254;DHT22;39148;53.332;6.922;2022-09-12T09:33:27;18.30;82.40
53254;DHT22;39148;53.332;6.922;2022-09-12T09:38:54;18.20;82.70
53254;DHT22;39148;53.332;6.922;2022-09-12T09:41:41;18.30;81.40
53254;DHT22;39148;53.332;6.922;2022-09-12T09:44:09;18.30;81.50
53254;DHT22;39148;53.332;6.922;2022-09-12T09:46:35;16.00;81.20
53254;DHT22;39148;53.332;6.922;2022-09-12T09:49:01;18.40;82.30
53254;DHT22;39148;53.332;6.922;2022-09-12T09:51:33;16.90;81.60
53254;DHT22;39148;53.332;6.922;2022-09-12T09:54:19;18.30;82.50
53254;DHT22;39148;53.332;6.922;2022-09-12T09:56:46;18.40;82.80
53254;DHT22;39148;53.332;6.922;2022-09-12T09:59:30;18.40;82.30
53254;DHT22;39148;53.332;6.922;2022-09-12T10:02:00;18.50;81.40
53254;DHT22;39148;53.332;6.922;2022-09-12T10:04:38;18.40;82.40
53254;DHT22;39148;53.332;6.922;2022-09-12T10:07:05;18.50;82.60
53254;DHT22;39148;53.332;6.922;2022-09-12T10:09:32;18.50;82.30
53254;DHT22;39148;53.332;6.922;2022-09-12T10:11:59;18.50;82.30
53254;DHT22;39148;53.332;6.922;2022-09-12T10:17:00;18.50;82.40
53254;DHT22;39148;53.332;6.922;2022-09-12T10:19:36;18.60;82.30
53254;DHT22;39148;53.332;6.922;2022-09-12T10:22:03;18.50;82.40
53254;DHT22;39148;53.332;6.922;2022-09-12T10:24:34;18.50;82.20
53254;DHT22;39148;53.332;6.922;2022-09-12T10:27:08;18.60;82.30
53254;DHT22;39148;53.332;6.922;2022-09-12T10:32:11;18.70;81.00
53254;DHT22;39148;53.332;6.922;2022-09-12T10:34:42;18.70;82.10
53254;DHT22;39148;53.332;6.922;2022-09-12T10:37:25;18.70;82.20
53254;DHT22;39148;53.332;6.922;2022-09-12T10:39:54;18.70;81.00
53254;DHT22;39148;53.332;6.922;2022-09-12T10:42:44;18.80;82.10
53254;DHT22;39148;53.332;6.922;2022-09-12T10:47:47;18.80;82.00
53254;DHT22;39148;53.332;6.922;2022-09-12T10:50:23;18.80;81.90
53254;DHT22;39148;53.332;6.922;2022-09-12T10:52:54;18.90;81.00
53254;DHT22;39148;53.332;6.922;2022-09-12T10:55:30;18.90;82.00
53254;DHT22;39148;53.332;6.922;2022-09-12T11:00:57;18.90;80.90
53254;DHT22;39148;53.332;6.922;2022-09-12T11:03:52;19.00;82.00
53254;DHT22;39148;53.332;6.922;2022-09-12T11:06:37;19.00;81.50
53254;DHT22;39148;53.332;6.922;2022-09-12T11:09:16;19.10;82.10
53254;DHT22;39148;53.332;6.922;2022-09-12T11:15:15;19.10;81.10
53254;DHT22;39148;53.332;6.922;2022-09-12T11:17:59;19.10;81.00
53254;DHT22;39148;53.332;6.922;2022-09-12T11:26:15;19.20;80.80
53254;DHT22;39148;53.332;6.922;2022-09-12T11:28:50;19.40;80.70
53254;DHT22;39148;53.332;6.922;2022-09-12T11:34:09;19.40;80.40
53254;DHT22;39148;53.332;6.922;2022-09-12T11:39:39;19.40;80.60
53254;DHT22;39148;53.332;6.922;2022-09-12T11:42:14;19.50;81.00
53254;DHT22;39148;53.332;6.922;2022-09-12T11:44:45;19.50;81.60
53254;DHT22;39148;53.332;6.922;2022-09-12T11:47:13;19.60;81.60
53254;DHT22;39148;53.332;6.922;2022-09-12T11:49:42;19.40;81.30
53254;DHT22;39148;53.332;6.922;2022-09-12T11:52:21;19.60;81.40
53254;DHT22;39148;53.332;6.922;2022-09-12T11:55:04;19.60;81.60
53254;DHT22;39148;53.332;6.922;2022-09-12T11:57:49;19.60;81.40
53254;DHT22;39148;53.332;6.922;2022-09-12T12:08:07;19.90;80.00
53254;DHT22;39148;53.332;6.922;2022-09-12T12:10:40;19.90;81.10
53254;DHT22;39148;53.332;6.922;2022-09-12T12:13:20;19.90;81.30
53254;DHT22;39148;53.332;6.922;2022-09-12T12:15:48;19.90;81.40
53254;DHT22;39148;53.332;6.922;2022-09-12T12:18:22;19.90;81.20
53254;DHT22;39148;53.332;6.922;2022-09-12T12:20:49;20.00;81.10
53254;DHT22;39148;53.332;6.922;2022-09-12T12:23:33;20.10;81.00
53254;DHT22;39148;53.332;6.922;2022-09-12T12:26:01;20.10;81.20
53254;DHT22;39148;53.332;6.922;2022-09-12T12:28:54;20.10;80.90
53254;DHT22;39148;53.332;6.922;2022-09-12T12:31:20;20.20;81.00
53254;DHT22;39148;53.332;6.922;2022-09-12T12:36:31;20.20;80.60
53254;DHT22;39148;53.332;6.922;2022-09-12T12:38:58;20.30;80.90
53254;DHT22;39148;53.332;6.922;2022-09-12T12:43:51;20.40;80.50
53254;DHT22;39148;53.332;6.922;2022-09-12T12:46:23;20.40;80.60
53254;DHT22;39148;53.332;6.922;2022-09-12T12:49:08;20.60;80.70
53254;DHT22;39148;53.332;6.922;2022-09-12T12:51:48;20.30;79.40
53254;DHT22;39148;53.332;6.922;2022-09-12T12:54:33;20.50;79.50
53254;DHT22;39148;53.332;6.922;2022-09-12T12:57:05;20.50;80.80
53254;DHT22;39148;53.332;6.922;2022-09-12T13:03:16;20.60;79.40
53254;DHT22;39148;53.332;6.922;2022-09-12T13:05:50;20.70;80.70
53254;DHT22;39148;53.332;6.922;2022-09-12T13:11:01;20.70;80.10
53254;DHT22;39148;53.332;6.922;2022-09-12T13:13:38;20.80;79.10
53254;DHT22;39148;53.332;6.922;2022-09-12T13:16:07;20.80;79.00
53254;DHT22;39148;53.332;6.922;2022-09-12T13:23:40;20.80;78.80
53254;DHT22;39148;53.332;6.922;2022-09-12T13:26:21;20.80;79.80
53254;DHT22;39148;53.332;6.922;2022-09-12T13:28:47;21.00;78.90
53254;DHT22;39148;53.332;6.922;2022-09-12T13:31:25;20.90;79.70
53254;DHT22;39148;53.332;6.922;2022-09-12T13:33:59;21.10;80.10
53254;DHT22;39148;53.332;6.922;2022-09-12T13:39:23;21.10;78.80
53254;DHT22;39148;53.332;6.922;2022-09-12T13:45:03;21.20;78.80
53254;DHT22;39148;53.332;6.922;2022-09-12T13:47:42;21.20;79.90
53254;DHT22;39148;53.332;6.922;2022-09-12T13:50:21;21.20;78.50
53254;DHT22;39148;53.332;6.922;2022-09-12T13:53:10;21.30;78.40
53254;DHT22;39148;53.332;6.922;2022-09-12T13:55:40;21.30;80.10
53254;DHT22;39148;53.332;6.922;2022-09-12T13:58:16;21.40;79.50
53254;DHT22;39148;53.332;6.922;2022-09-12T14:00:43;21.30;79.40
53254;DHT22;39148;53.332;6.922;2022-09-12T14:03:32;21.40;79.10
53254;DHT22;39148;53.332;6.922;2022-09-12T14:06:16;21.30;78.30
53254;DHT22;39148;53.332;6.922;2022-09-12T14:08:45;21.50;79.30
53254;DHT22;39148;53.332;6.922;2022-09-12T14:11:24;21.50;79.30
53254;DHT22;39148;53.332;6.922;2022-09-12T14:13:51;21.60;78.10
53254;DHT22;39148;53.332;6.922;2022-09-12T14:16:18;21.50;79.00
53254;DHT22;39148;53.332;6.922;2022-09-12T14:18:46;21.60;79.00
53254;DHT22;39148;53.332;6.922;2022-09-12T14:23:55;21.70;79.30
53254;DHT22;39148;53.332;6.922;2022-09-12T14:26:22;21.70;79.40
53254;DHT22;39148;53.332;6.922;2022-09-12T14:28:49;21.70;78.80
53254;DHT22;39148;53.332;6.922;2022-09-12T14:33:47;21.70;78.60
53254;DHT22;39148;53.332;6.922;2022-09-12T14:39:02;21.90;79.00
53254;DHT22;39148;53.332;6.922;2022-09-12T14:41:37;21.90;78.80
53254;DHT22;39148;53.332;6.922;2022-09-12T14:44:23;21.90;78.90
53254;DHT22;39148;53.332;6.922;2022-09-12T14:46:50;21.90;77.60
53254;DHT22;39148;53.332;6.922;2022-09-12T14:49:22;22.00;78.50
53254;DHT22;39148;53.332;6.922;2022-09-12T14:54:53;22.10;78.40
53254;DHT22;39148;53.332;6.922;2022-09-12T14:57:38;22.10;79.40
53254;DHT22;39148;53.332;6.922;2022-09-12T15:00:24;22.10;77.60
53254;DHT22;39148;53.332;6.922;2022-09-12T15:02:51;22.10;78.60
53254;DHT22;39148;53.332;6.922;2022-09-12T15:05:23;22.20;78.50
53254;DHT22;39148;53.332;6.922;2022-09-12T15:07:53;22.20;77.20
53254;DHT22;39148;53.332;6.922;2022-09-12T15:10:35;22.20;78.40
53254;DHT22;39148;53.332;6.922;2022-09-12T15:15:34;22.30;77.20
53254;DHT22;39148;53.332;6.922;2022-09-12T15:18:00;22.20;78.20
53254;DHT22;39148;53.332;6.922;2022-09-12T15:20:26;22.30;78.10
53254;DHT22;39148;53.332;6.922;2022-09-12T15:22:52;22.20;77.90
53254;DHT22;39148;53.332;6.922;2022-09-12T15:25:20;22.30;77.90
53254;DHT22;39148;53.332;6.922;2022-09-12T15:27:46;22.30;77.90
53254;DHT22;39148;53.332;6.922;2022-09-12T15:30:12;22.50;78.00
53254;DHT22;39148;53.332;6.922;2022-09-12T15:32:39;22.40;77.80
53254;DHT22;39148;53.332;6.922;2022-09-12T15:35:22;22.30;78.00
53254;DHT22;39148;53.332;6.922;2022-09-12T15:37:49;22.40;77.00
53254;DHT22;39148;53.332;6.922;2022-09-12T15:40:15;22.40;77.90
53254;DHT22;39148;53.332;6.922;2022-09-12T15:42:41;22.50;77.70
53254;DHT22;39148;53.332;6.922;2022-09-12T15:45:28;22.50;77.80
53254;DHT22;39148;53.332;6.922;2022-09-12T15:47:54;22.40;78.10
53254;DHT22;39148;53.332;6.922;2022-09-12T15:50:20;22.40;77.80
53254;DHT22;39148;53.332;6.922;2022-09-12T15:52:47;22.40;77.80
53254;DHT22;39148;53.332;6.922;2022-09-12T15:57:43;22.50;77.80
53254;DHT22;39148;53.332;6.922;2022-09-12T16:00:11;22.50;77.70
53254;DHT22;39148;53.332;6.922;2022-09-12T16:02:37;22.40;77.40
53254;DHT22;39148;53.332;6.922;2022-09-12T16:05:04;22.60;77.70
53254;DHT22;39148;53.332;6.922;2022-09-12T16:07:31;22.70;77.60
53254;DHT22;39148;53.332;6.922;2022-09-12T16:09:56;22.60;77.70
53254;DHT22;39148;53.332;6.922;2022-09-12T16:12:22;22.60;77.60
53254;DHT22;39148;53.332;6.922;2022-09-12T16:14:48;22.70;77.60
53254;DHT22;39148;53.332;6.922;2022-09-12T16:17:13;22.60;77.60
53254;DHT22;39148;53.332;6.922;2022-09-12T16:19:39;22.60;77.60
53254;DHT22;39148;53.332;6.922;2022-09-12T16:22:04;22.70;77.60
53254;DHT22;39148;53.332;6.922;2022-09-12T16:24:30;22.70;77.60
53254;DHT22;39148;53.332;6.922;2022-09-12T16:26:56;22.60;77.60
53254;DHT22;39148;53.332;6.922;2022-09-12T16:29:22;22.70;77.50
53254;DHT22;39148;53.332;6.922;2022-09-12T16:31:47;22.70;77.50
53254;DHT22;39148;53.332;6.922;2022-09-12T16:34:14;22.70;77.60
53254;DHT22;39148;53.332;6.922;2022-09-12T16:36:39;22.60;77.50
53254;DHT22;39148;53.332;6.922;2022-09-12T16:39:05;22.60;77.50
53254;DHT22;39148;53.332;6.922;2022-09-12T16:41:31;22.70;77.50
53254;DHT22;39148;53.332;6.922;2022-09-12T16:43:57;22.60;77.50
53254;DHT22;39148;53.332;6.922;2022-09-12T16:46:25;22.70;77.50
53254;DHT22;39148;53.332;6.922;2022-09-12T16:48:53;22.70;77.60
53254;DHT22;39148;53.332;6.922;2022-09-12T16:51:33;22.70;77.60
53254;DHT22;39148;53.332;6.922;2022-09-12T16:54:00;22.60;76.50
53254;DHT22;39148;53.332;6.922;2022-09-12T16:56:26;22.80;77.60
53254;DHT22;39148;53.332;6.922;2022-09-12T16:58:52;22.70;77.50
53254;DHT22;39148;53.332;6.922;2022-09-12T17:01:20;22.80;77.50
53254;DHT22;39148;53.332;6.922;2022-09-12T17:03:46;22.80;77.70
53254;DHT22;39148;53.332;6.922;2022-09-12T17:06:15;22.70;77.60
53254;DHT22;39148;53.332;6.922;2022-09-12T17:08:43;22.70;77.60
53254;DHT22;39148;53.332;6.922;2022-09-12T17:11:14;22.70;77.60
53254;DHT22;39148;53.332;6.922;2022-09-12T17:13:45;22.70;77.70
53254;DHT22;39148;53.332;6.922;2022-09-12T17:16:11;22.60;78.10
53254;DHT22;39148;53.332;6.922;2022-09-12T17:18:37;22.70;77.60
53254;DHT22;39148;53.332;6.922;2022-09-12T17:21:04;22.80;77.80
53254;DHT22;39148;53.332;6.922;2022-09-12T17:23:30;22.90;77.70
53254;DHT22;39148;53.332;6.922;2022-09-12T17:25:57;22.80;77.70
53254;DHT22;39148;53.332;6.922;2022-09-12T17:28:23;22.80;77.70
53254;DHT22;39148;53.332;6.922;2022-09-12T17:30:59;22.70;77.50
53254;DHT22;39148;53.332;6.922;2022-09-12T17:33:26;22.70;77.80
53254;DHT22;39148;53.332;6.922;2022-09-12T17:35:52;22.70;77.60
53254;DHT22;39148;53.332;6.922;2022-09-12T17:38:19;22.50;77.40
53254;DHT22;39148;53.332;6.922;2022-09-12T17:40:45;22.70;77.70
53254;DHT22;39148;53.332;6.922;2022-09-12T17:43:14;22.70;77.70
53254;DHT22;39148;53.332;6.922;2022-09-12T17:45:40;22.60;77.70
53254;DHT22;39148;53.332;6.922;2022-09-12T17:48:08;22.70;77.60
53254;DHT22;39148;53.332;6.922;2022-09-12T17:50:36;22.80;77.80
53254;DHT22;39148;53.332;6.922;2022-09-12T17:53:03;22.70;77.80
53254;DHT22;39148;53.332;6.922;2022-09-12T17:55:29;22.60;77.70
53254;DHT22;39148;53.332;6.922;2022-09-12T17:57:58;22.60;76.80
53254;DHT22;39148;53.332;6.922;2022-09-12T18:00:26;22.60;77.60
53254;DHT22;39148;53.332;6.922;2022-09-12T18:03:13;22.70;77.80